createdAt,value
2022-11-29T00:01:17.196Z,34.01
2022-11-29T00:03:45.088Z,34.10
2022-11-29T00:06:14.107Z,34.21
2022-11-29T00:08:42.391Z,33.77
2022-11-29T00:11:10.985Z,34.05
2022-11-29T00:13:38.911Z,33.66
2022-11-29T00:16:08.301Z,33.80
2022-11-29T00:18:37.649Z,33.98
2022-11-29T00:21:06.870Z,33.95
2022-11-29T00:23:34.789Z,34.24
2022-11-29T00:26:05.976Z,34.01
2022-11-29T00:28:33.928Z,33.99
2022-11-29T00:31:01.858Z,34.04
2022-11-29T00:33:29.780Z,34.22
2022-11-29T00:36:01.648Z,33.89
2022-11-29T00:38:29.560Z,33.96
2022-11-29T00:40:57.381Z,34.00
2022-11-29T00:43:25.288Z,33.96
2022-11-29T00:45:53.495Z,33.97
2022-11-29T00:48:21.405Z,34.04
2022-11-29T00:50:49.278Z,33.84
2022-11-29T00:53:18.569Z,34.18
2022-11-29T00:55:46.734Z,34.06
2022-11-29T00:58:14.597Z,34.08
2022-11-29T01:00:42.474Z,34.29
2022-11-29T01:03:10.846Z,33.84
2022-11-29T01:05:39.028Z,34.37
2022-11-29T01:08:07.133Z,34.36
2022-11-29T01:10:36.395Z,34.05
2022-11-29T01:13:04.317Z,34.16
2022-11-29T01:15:32.547Z,34.02
2022-11-29T01:18:00.453Z,33.95
2022-11-29T01:20:28.381Z,33.96
2022-11-29T01:22:56.242Z,34.00
2022-11-29T01:25:24.450Z,34.08
2022-11-29T01:27:53.731Z,34.01
2022-11-29T01:30:21.822Z,34.07
2022-11-29T01:32:49.790Z,33.99
2022-11-29T01:35:17.954Z,33.97
2022-11-29T01:37:45.816Z,34.06
2022-11-29T01:40:14.964Z,34.07
2022-11-29T01:42:42.812Z,34.36
2022-11-29T01:45:22.816Z,33.99
2022-11-29T01:47:51.136Z,34.13
2022-11-29T01:50:19.156Z,33.96
2022-11-29T01:52:47.062Z,33.97
2022-11-29T01:55:15.174Z,34.13
2022-11-29T01:57:43.329Z,33.99
2022-11-29T02:00:17.429Z,33.99
2022-11-29T02:02:46.368Z,34.05
2022-11-29T02:05:15.023Z,34.21
2022-11-29T02:07:43.391Z,33.89
2022-11-29T02:10:11.581Z,34.04
2022-11-29T02:12:44.040Z,34.14
2022-11-29T02:15:29.111Z,34.01
2022-11-29T02:18:02.707Z,34.08
2022-11-29T02:21:09.023Z,34.21
2022-11-29T02:24:33.611Z,34.01
2022-11-29T02:27:18.068Z,34.33
2022-11-29T02:30:13.645Z,34.28
2022-11-29T02:33:15.315Z,34.02
2022-11-29T02:36:14.215Z,34.24
2022-11-29T02:38:57.226Z,34.07
2022-11-29T02:41:32.133Z,33.81
2022-11-29T02:44:08.449Z,33.92
2022-11-29T02:46:45.618Z,34.36
2022-11-29T02:49:16.731Z,33.86
2022-11-29T02:51:47.953Z,33.82
2022-11-29T02:54:18.720Z,34.01
2022-11-29T02:56:49.007Z,34.15
2022-11-29T02:59:22.125Z,34.12
2022-11-29T03:01:53.299Z,34.09
2022-11-29T03:04:27.105Z,34.08
2022-11-29T03:06:57.894Z,33.90
2022-11-29T03:09:29.475Z,34.26
2022-11-29T03:12:00.399Z,34.15
2022-11-29T03:14:30.075Z,34.23
2022-11-29T03:17:04.715Z,34.00
2022-11-29T03:19:41.578Z,34.17
2022-11-29T03:22:13.723Z,34.02
2022-11-29T03:24:45.519Z,34.17
2022-11-29T03:27:14.483Z,34.00
2022-11-29T03:29:46.429Z,34.23
2022-11-29T03:32:17.359Z,33.98
2022-11-29T03:34:56.841Z,34.22
2022-11-29T03:37:27.411Z,34.05
2022-11-29T03:39:58.625Z,33.94
2022-11-29T03:42:27.805Z,34.04
2022-11-29T03:44:59.230Z,34.18
2022-11-29T03:47:29.998Z,34.01
2022-11-29T03:50:01.083Z,34.11
2022-11-29T03:52:32.052Z,34.03
2022-11-29T03:55:12.994Z,34.01
2022-11-29T03:57:44.435Z,34.16
2022-11-29T04:00:13.375Z,34.08
2022-11-29T04:03:34.846Z,34.13
2022-11-29T04:06:18.470Z,34.33
2022-11-29T04:09:20.932Z,34.16
2022-11-29T04:12:18.150Z,34.15
2022-11-29T04:15:18.912Z,34.44
2022-11-29T04:18:14.883Z,34.24
2022-11-29T04:21:07.703Z,34.08
2022-11-29T04:24:11.712Z,33.99
2022-11-29T04:26:52.664Z,34.15
2022-11-29T04:29:25.715Z,34.18
2022-11-29T04:32:05.824Z,34.04
2022-11-29T04:34:46.972Z,34.25
2022-11-29T04:37:35.848Z,34.21
2022-11-29T04:40:37.803Z,34.23
2022-11-29T04:43:14.913Z,34.10
2022-11-29T04:46:26.227Z,34.15
2022-11-29T04:49:30.083Z,34.25
2022-11-29T04:52:17.429Z,34.15
2022-11-29T04:54:48.299Z,34.25
2022-11-29T04:57:21.131Z,34.20
2022-11-29T04:59:52.785Z,34.15
2022-11-29T05:02:29.817Z,34.44
2022-11-29T05:04:59.941Z,34.40
2022-11-29T05:07:31.035Z,34.02
2022-11-29T05:10:04.365Z,34.14
2022-11-29T05:12:34.888Z,34.11
2022-11-29T05:15:33.845Z,34.15
2022-11-29T05:18:07.266Z,34.20
2022-11-29T05:20:38.200Z,34.16
2022-11-29T05:23:13.649Z,34.01
2022-11-29T05:25:44.698Z,34.10
2022-11-29T05:28:16.165Z,34.24
2022-11-29T05:31:15.914Z,34.14
2022-11-29T05:34:06.255Z,34.20
2022-11-29T05:36:38.254Z,34.25
2022-11-29T05:39:32.148Z,34.31
2022-11-29T05:42:09.106Z,34.40
2022-11-29T05:44:38.946Z,34.47
2022-11-29T05:47:10.186Z,34.32
2022-11-29T05:49:40.788Z,34.17
2022-11-29T05:52:21.652Z,34.46
2022-11-29T05:54:54.727Z,34.14
2022-11-29T05:57:26.089Z,34.26
2022-11-29T05:59:54.020Z,34.25
2022-11-29T06:02:31.784Z,34.05
2022-11-29T06:05:07.952Z,34.21
2022-11-29T06:07:40.039Z,34.11
2022-11-29T06:10:12.165Z,34.28
2022-11-29T06:12:40.664Z,34.31
2022-11-29T06:15:31.479Z,34.05
2022-11-29T06:18:09.100Z,33.98
2022-11-29T06:20:43.882Z,34.13
2022-11-29T06:23:29.110Z,34.13
2022-11-29T06:26:04.471Z,34.32
2022-11-29T06:28:43.250Z,34.39
2022-11-29T06:31:14.940Z,34.14
2022-11-29T06:33:47.015Z,34.26
2022-11-29T06:36:18.049Z,34.21
2022-11-29T06:38:46.723Z,34.37
2022-11-29T06:41:18.514Z,34.18
2022-11-29T06:43:47.117Z,34.12
2022-11-29T06:46:19.182Z,34.17
2022-11-29T06:48:50.766Z,34.36
2022-11-29T06:51:21.498Z,34.27
2022-11-29T06:53:51.266Z,34.05
2022-11-29T06:56:22.680Z,34.11
2022-11-29T06:58:55.688Z,34.44
2022-11-29T07:01:27.272Z,34.31
2022-11-29T07:04:06.395Z,34.30
2022-11-29T07:06:34.655Z,34.26
2022-11-29T07:09:04.808Z,34.50
2022-11-29T07:11:33.497Z,34.49
2022-11-29T07:14:01.954Z,34.34
2022-11-29T07:16:31.484Z,34.27
2022-11-29T07:19:05.088Z,34.47
2022-11-29T07:21:41.205Z,34.56
2022-11-29T07:24:12.777Z,34.49
2022-11-29T07:26:43.897Z,34.41
2022-11-29T07:29:20.605Z,34.28
2022-11-29T07:31:53.292Z,34.26
2022-11-29T07:34:28.198Z,34.35
2022-11-29T07:36:58.142Z,34.22
2022-11-29T07:39:30.367Z,34.62
2022-11-29T07:42:01.943Z,34.46
2022-11-29T07:44:33.133Z,34.27
2022-11-29T07:47:01.325Z,34.62
2022-11-29T07:49:30.617Z,34.29
2022-11-29T07:51:58.545Z,34.33
2022-11-29T07:54:26.820Z,34.48
2022-11-29T07:56:54.984Z,34.32
2022-11-29T07:59:22.876Z,34.16
2022-11-29T08:01:50.787Z,34.31
2022-11-29T08:04:18.709Z,33.95
2022-11-29T08:06:48.288Z,34.14
2022-11-29T08:09:16.177Z,34.31
2022-11-29T08:11:44.729Z,34.21
2022-11-29T08:14:12.635Z,34.37
2022-11-29T08:16:40.905Z,34.31
2022-11-29T08:19:09.041Z,34.28
2022-11-29T08:21:36.943Z,34.36
2022-11-29T08:24:06.746Z,34.30
2022-11-29T08:26:34.895Z,34.41
2022-11-29T08:29:02.835Z,34.18
2022-11-29T08:31:30.765Z,34.31
2022-11-29T08:33:58.678Z,34.27
2022-11-29T08:36:26.985Z,34.38
2022-11-29T08:39:02.284Z,34.31
2022-11-29T08:41:35.272Z,34.27
2022-11-29T08:44:03.350Z,34.33
2022-11-29T08:46:45.397Z,34.28
2022-11-29T08:49:13.282Z,34.40
2022-11-29T08:51:41.206Z,34.39
2022-11-29T08:54:08.210Z,34.36
2022-11-29T08:59:27.086Z,34.40
2022-11-29T09:01:55.048Z,34.42
2022-11-29T09:04:23.374Z,34.59
2022-11-29T09:06:54.415Z,34.30
2022-11-29T09:09:22.292Z,34.25
2022-11-29T09:11:51.546Z,34.38
2022-11-29T09:14:19.975Z,34.29
2022-11-29T09:16:48.196Z,34.37
2022-11-29T09:19:16.827Z,34.57
2022-11-29T09:21:44.681Z,34.19
2022-11-29T09:24:12.638Z,34.48
2022-11-29T09:26:42.144Z,34.37
2022-11-29T09:29:11.802Z,34.56
2022-11-29T09:31:39.760Z,34.75
2022-11-29T09:34:07.647Z,34.55
2022-11-29T09:36:35.875Z,34.61
2022-11-29T09:39:03.842Z,34.55
2022-11-29T09:41:49.013Z,34.78
2022-11-29T09:44:21.832Z,34.79
2022-11-29T09:46:58.593Z,34.98
2022-11-29T09:49:56.317Z,34.65
2022-11-29T09:52:30.583Z,34.65
2022-11-29T09:55:01.242Z,34.73
2022-11-29T09:57:29.372Z,35.04
2022-11-29T09:59:59.378Z,34.85
2022-11-29T10:02:31.465Z,34.97
2022-11-29T10:05:02.489Z,35.42
2022-11-29T10:07:34.018Z,35.18
2022-11-29T10:10:03.533Z,35.11
2022-11-29T10:12:34.313Z,35.32
2022-11-29T10:15:08.821Z,35.35
2022-11-29T10:17:38.421Z,35.14
2022-11-29T10:20:11.949Z,35.33
2022-11-29T10:22:43.571Z,35.12
2022-11-29T10:25:17.498Z,35.27
2022-11-29T10:27:45.390Z,35.15
2022-11-29T10:30:16.758Z,35.09
2022-11-29T10:32:46.594Z,35.15
2022-11-29T10:35:15.383Z,35.09
2022-11-29T10:37:56.388Z,35.22
2022-11-29T10:40:32.568Z,35.55
2022-11-29T10:43:00.406Z,35.40
2022-11-29T10:45:30.953Z,35.27
2022-11-29T10:48:01.991Z,35.23
2022-11-29T10:50:30.823Z,35.93
2022-11-29T10:53:02.007Z,36.05
2022-11-29T10:55:29.864Z,35.93
2022-11-29T10:58:11.728Z,35.97
2022-11-29T11:00:51.400Z,36.04
2022-11-29T11:03:26.031Z,36.27
2022-11-29T11:06:01.484Z,36.17
2022-11-29T11:08:29.720Z,36.20
2022-11-29T11:11:01.689Z,36.07
2022-11-29T11:13:31.109Z,36.11
2022-11-29T11:16:08.996Z,36.31
2022-11-29T11:18:37.349Z,36.19
2022-11-29T11:21:05.338Z,36.23
2022-11-29T11:23:36.469Z,36.18
2022-11-29T11:26:10.546Z,36.44
2022-11-29T11:28:41.481Z,36.42
2022-11-29T11:31:11.977Z,36.45
2022-11-29T11:33:40.306Z,36.34
2022-11-29T11:36:11.001Z,36.48
2022-11-29T11:38:39.875Z,36.57
2022-11-29T11:41:23.811Z,36.26
2022-11-29T11:43:56.385Z,36.37
2022-11-29T11:46:27.054Z,36.34
2022-11-29T11:48:54.961Z,36.42
2022-11-29T11:51:24.370Z,36.48
2022-11-29T11:53:53.441Z,36.38
2022-11-29T11:56:23.654Z,36.26
2022-11-29T11:58:52.994Z,36.49
2022-11-29T12:01:28.641Z,36.52
2022-11-29T12:04:01.788Z,36.56
2022-11-29T12:06:39.497Z,36.46
2022-11-29T12:09:13.943Z,36.76
2022-11-29T12:11:45.446Z,36.51
2022-11-29T12:14:19.410Z,36.42
2022-11-29T12:16:48.990Z,36.51
2022-11-29T12:19:18.963Z,36.48
2022-11-29T12:21:49.124Z,36.63
2022-11-29T12:24:21.744Z,36.44
2022-11-29T12:26:58.577Z,36.36
2022-11-29T12:29:28.458Z,36.68
2022-11-29T12:32:02.984Z,36.73
2022-11-29T12:34:42.998Z,36.90
2022-11-29T12:37:12.627Z,36.62
2022-11-29T12:39:48.638Z,36.40
2022-11-29T12:42:21.246Z,36.37
2022-11-29T12:44:53.859Z,36.77
2022-11-29T12:47:37.392Z,36.70
2022-11-29T12:50:13.271Z,36.63
2022-11-29T12:52:44.911Z,36.72
2022-11-29T12:55:19.317Z,36.76
2022-11-29T12:57:49.941Z,36.57
2022-11-29T13:00:18.783Z,36.70
2022-11-29T13:02:55.666Z,36.40
2022-11-29T13:05:34.268Z,36.67
2022-11-29T13:08:13.516Z,36.57
2022-11-29T13:10:52.076Z,36.73
2022-11-29T13:13:22.082Z,36.64
2022-11-29T13:15:54.234Z,36.78
2022-11-29T13:18:25.821Z,36.64
2022-11-29T13:20:55.536Z,36.69
2022-11-29T13:23:45.809Z,36.76
2022-11-29T13:26:13.992Z,36.83
2022-11-29T13:28:43.239Z,36.66
2022-11-29T13:31:15.110Z,36.22
2022-11-29T13:33:53.954Z,36.44
2022-11-29T13:36:23.791Z,36.63
2022-11-29T13:38:57.235Z,36.58
2022-11-29T13:41:30.071Z,36.60
2022-11-29T13:44:00.102Z,36.57
2022-11-29T13:46:30.452Z,36.69
2022-11-29T13:48:59.868Z,36.59
2022-11-29T13:51:30.282Z,36.72
2022-11-29T13:53:58.829Z,36.83
2022-11-29T13:56:43.028Z,36.62
2022-11-29T13:59:17.536Z,36.68
2022-11-29T14:01:46.799Z,36.52
2022-11-29T14:04:37.248Z,36.64
2022-11-29T14:07:12.441Z,36.57
2022-11-29T14:09:44.695Z,36.39
2022-11-29T14:12:35.889Z,36.58
2022-11-29T14:15:08.763Z,36.48
2022-11-29T14:17:55.324Z,36.66
2022-11-29T14:20:58.135Z,36.60
2022-11-29T14:23:42.072Z,36.46
2022-11-29T14:26:29.674Z,36.55
2022-11-29T14:28:58.423Z,36.58
2022-11-29T14:31:54.129Z,36.37
2022-11-29T14:34:43.551Z,36.69
2022-11-29T14:37:42.216Z,36.62
2022-11-29T14:40:19.424Z,36.77
2022-11-29T14:42:48.079Z,36.82
2022-11-29T14:45:23.308Z,36.88
2022-11-29T14:47:51.292Z,36.65
2022-11-29T14:50:30.585Z,36.77
2022-11-29T14:52:59.803Z,36.91
2022-11-29T14:55:35.448Z,36.57
2022-11-29T14:58:17.415Z,36.67
2022-11-29T15:01:01.769Z,36.44
2022-11-29T15:03:38.317Z,36.60
2022-11-29T15:06:13.079Z,36.41
2022-11-29T15:08:47.925Z,36.58
2022-11-29T15:11:19.133Z,36.34
2022-11-29T15:13:50.874Z,36.50
2022-11-29T15:16:28.403Z,36.43
2022-11-29T15:19:15.233Z,36.61
2022-11-29T15:21:47.230Z,36.18
2022-11-29T15:24:17.101Z,36.41
2022-11-29T15:26:56.065Z,36.39
2022-11-29T15:29:23.955Z,36.23
2022-11-29T15:31:54.162Z,36.43
2022-11-29T15:34:31.484Z,36.46
2022-11-29T15:36:59.447Z,36.45
2022-11-29T15:39:31.332Z,36.21
2022-11-29T15:42:03.476Z,36.65
2022-11-29T15:44:33.240Z,36.32
2022-11-29T15:47:17.866Z,36.51
2022-11-29T15:49:45.794Z,36.32
2022-11-29T15:52:20.137Z,36.58
2022-11-29T15:54:50.707Z,36.50
2022-11-29T15:57:19.555Z,36.56
2022-11-29T15:59:48.856Z,36.52
2022-11-29T16:02:19.616Z,36.40
2022-11-29T16:04:47.667Z,36.28
2022-11-29T16:07:16.279Z,36.22
2022-11-29T16:09:45.405Z,36.37
2022-11-29T16:12:15.878Z,36.41
2022-11-29T16:14:51.255Z,36.40
2022-11-29T16:17:20.042Z,36.53
2022-11-29T16:19:48.127Z,36.36
2022-11-29T16:22:17.937Z,36.41
2022-11-29T16:24:53.689Z,36.49
2022-11-29T16:27:23.362Z,36.30
2022-11-29T16:29:51.590Z,36.39
2022-11-29T16:32:26.175Z,36.09
2022-11-29T16:34:54.055Z,36.34
2022-11-29T16:37:22.861Z,36.33
2022-11-29T16:39:51.847Z,36.23
2022-11-29T16:42:28.057Z,36.47
2022-11-29T16:45:00.082Z,36.35
2022-11-29T16:47:31.716Z,36.29
2022-11-29T16:50:14.126Z,36.30
2022-11-29T16:52:42.018Z,36.23
2022-11-29T16:55:10.179Z,36.32
2022-11-29T16:57:39.541Z,36.12
2022-11-29T17:00:23.605Z,36.18
2022-11-29T17:02:51.765Z,36.35
2022-11-29T17:05:19.637Z,35.85
2022-11-29T17:07:47.790Z,36.09
2022-11-29T17:10:17.752Z,36.10
2022-11-29T17:12:48.464Z,36.14
2022-11-29T17:15:16.965Z,36.11
2022-11-29T17:17:44.863Z,36.33
2022-11-29T17:20:13.577Z,36.23
2022-11-29T17:22:41.486Z,36.35
2022-11-29T17:25:10.079Z,36.30
2022-11-29T17:27:38.112Z,36.38
2022-11-29T17:30:14.690Z,36.16
2022-11-29T17:32:42.630Z,36.38
2022-11-29T17:35:10.846Z,36.12
2022-11-29T17:37:38.754Z,36.01
2022-11-29T17:40:07.769Z,36.24
2022-11-29T17:42:35.653Z,36.23
2022-11-29T17:45:04.190Z,35.99
2022-11-29T17:47:33.599Z,36.31
2022-11-29T17:50:01.507Z,36.11
2022-11-29T17:52:29.486Z,36.17
2022-11-29T17:54:57.678Z,35.94
2022-11-29T17:57:28.370Z,36.06
2022-11-29T18:00:05.418Z,36.09
2022-11-29T18:02:34.764Z,36.18
2022-11-29T18:05:02.683Z,36.25
2022-11-29T18:07:32.895Z,36.12
2022-11-29T18:10:01.200Z,36.17
2022-11-29T18:12:29.107Z,36.13
2022-11-29T18:14:57.014Z,36.28
2022-11-29T18:17:25.326Z,36.39
2022-11-29T18:19:55.040Z,36.03
2022-11-29T18:22:22.975Z,36.26
2022-11-29T18:24:50.837Z,36.13
2022-11-29T18:27:19.345Z,35.94
2022-11-29T18:29:47.408Z,36.12
2022-11-29T18:32:15.529Z,36.07
2022-11-29T18:34:43.568Z,35.98
2022-11-29T18:37:20.058Z,35.96
2022-11-29T18:39:57.158Z,36.16
2022-11-29T18:42:25.290Z,35.95
2022-11-29T18:44:58.627Z,35.78
2022-11-29T18:47:26.815Z,35.83
2022-11-29T18:49:55.211Z,35.74
2022-11-29T18:52:24.541Z,35.93
2022-11-29T18:54:52.431Z,36.09
2022-11-29T18:57:20.470Z,35.99
2022-11-29T18:59:48.854Z,35.92
2022-11-29T19:02:20.881Z,35.78
2022-11-29T19:04:50.442Z,36.02
2022-11-29T19:07:18.493Z,35.90
2022-11-29T19:09:47.845Z,36.01
2022-11-29T19:12:15.708Z,35.99
2022-11-29T19:14:49.438Z,35.84
2022-11-29T19:17:17.841Z,35.86
2022-11-29T19:19:46.342Z,35.89
2022-11-29T19:22:14.473Z,35.67
2022-11-29T19:24:43.066Z,35.83
2022-11-29T19:27:12.598Z,35.82
2022-11-29T19:29:40.463Z,35.45
2022-11-29T19:32:09.459Z,35.95
2022-11-29T19:34:37.389Z,35.54
2022-11-29T19:37:05.254Z,35.68
2022-11-29T19:39:34.142Z,35.50
2022-11-29T19:42:02.139Z,35.74
2022-11-29T19:44:35.896Z,35.75
2022-11-29T19:47:16.378Z,35.55
2022-11-29T19:49:46.727Z,35.40
2022-11-29T19:52:14.907Z,35.62
2022-11-29T19:54:42.781Z,35.68
2022-11-29T19:57:10.708Z,35.62
2022-11-29T19:59:40.277Z,35.65
2022-11-29T20:02:08.672Z,35.81
2022-11-29T20:04:36.640Z,35.66
2022-11-29T20:07:04.587Z,35.59
2022-11-29T20:09:32.834Z,35.74
2022-11-29T20:12:00.753Z,35.65
2022-11-29T20:14:28.647Z,35.77
2022-11-29T20:16:57.882Z,35.70
2022-11-29T20:19:26.041Z,35.40
2022-11-29T20:21:53.911Z,35.54
2022-11-29T20:24:21.786Z,35.66
2022-11-29T20:26:49.785Z,35.60
2022-11-29T20:29:19.237Z,35.69
2022-11-29T20:31:50.535Z,35.60
2022-11-29T20:34:20.964Z,35.50
2022-11-29T20:37:15.592Z,35.49
2022-11-29T20:39:46.716Z,35.55
2022-11-29T20:42:35.859Z,35.61
2022-11-29T20:45:04.842Z,35.88
2022-11-29T20:47:34.704Z,35.46
2022-11-29T20:50:04.815Z,35.60
2022-11-29T20:52:37.418Z,35.65
2022-11-29T20:55:05.826Z,35.72
2022-11-29T20:57:33.718Z,35.60
2022-11-29T21:00:02.403Z,35.70
2022-11-29T21:02:30.335Z,35.66
2022-11-29T21:04:58.214Z,35.59
2022-11-29T21:07:27.475Z,35.54
2022-11-29T21:10:00.755Z,35.45
2022-11-29T21:12:30.042Z,35.82
2022-11-29T21:14:58.511Z,35.61
2022-11-29T21:17:33.136Z,35.64
2022-11-29T21:20:03.590Z,35.51
2022-11-29T21:22:38.707Z,35.86
2022-11-29T21:25:10.947Z,35.52
2022-11-29T21:27:39.443Z,35.62
2022-11-29T21:30:14.500Z,35.53
2022-11-29T21:32:42.993Z,35.37
2022-11-29T21:35:10.888Z,35.54
2022-11-29T21:37:40.171Z,35.59
2022-11-29T21:40:09.456Z,35.53
2022-11-29T21:42:37.475Z,35.61
2022-11-29T21:45:14.941Z,35.66
2022-11-29T21:47:43.930Z,35.52
2022-11-29T21:50:13.068Z,35.75
2022-11-29T21:52:44.221Z,35.47
2022-11-29T21:55:12.137Z,35.55
2022-11-29T21:57:40.141Z,35.38
2022-11-29T22:00:11.444Z,35.83
2022-11-29T22:02:39.486Z,35.38
2022-11-29T22:05:09.688Z,35.61
2022-11-29T22:07:37.713Z,35.59
2022-11-29T22:10:13.339Z,35.33
2022-11-29T22:12:51.283Z,35.37
2022-11-29T22:15:24.552Z,35.32
2022-11-29T22:17:52.969Z,35.41
2022-11-29T22:20:21.189Z,35.53
2022-11-29T22:22:49.275Z,35.55
2022-11-29T22:25:19.222Z,35.29
2022-11-29T22:27:47.142Z,35.25
2022-11-29T22:30:15.736Z,35.42
2022-11-29T22:32:43.746Z,35.43
2022-11-29T22:35:11.610Z,35.35
2022-11-29T22:37:39.499Z,35.35
2022-11-29T22:40:08.835Z,35.55
2022-11-29T22:42:38.197Z,35.32
2022-11-29T22:45:08.952Z,35.32
2022-11-29T22:47:36.872Z,35.44
2022-11-29T22:50:05.882Z,35.35
2022-11-29T22:52:33.799Z,35.35
2022-11-29T22:55:05.058Z,35.36
2022-11-29T22:57:33.310Z,35.46
2022-11-29T23:00:02.921Z,35.40
2022-11-29T23:02:30.919Z,35.34
2022-11-29T23:04:58.795Z,35.06
2022-11-29T23:07:26.722Z,35.00
2022-11-29T23:09:55.963Z,35.24
2022-11-29T23:12:24.999Z,35.29
2022-11-29T23:14:56.318Z,35.47
2022-11-29T23:17:25.909Z,35.29
2022-11-29T23:19:54.064Z,35.01
2022-11-29T23:22:21.943Z,35.27
2022-11-29T23:24:49.825Z,35.23
2022-11-29T23:27:17.672Z,34.96
2022-11-29T23:29:45.838Z,35.08
2022-11-29T23:32:13.708Z,35.14
2022-11-29T23:34:42.973Z,35.13
2022-11-29T23:37:10.850Z,35.38
2022-11-29T23:39:39.054Z,35.30
2022-11-29T23:42:06.978Z,35.23
2022-11-29T23:44:34.835Z,35.23
2022-11-29T23:47:02.714Z,34.96
2022-11-29T23:49:31.859Z,35.30
2022-11-29T23:52:01.124Z,35.07
2022-11-29T23:54:29.058Z,35.45
2022-11-29T23:56:56.902Z,35.23
2022-11-29T23:59:25.052Z,35.49
